Main page
METAR-TAF:

METAR-TAF

Airports :

Cairo International Airport

Cairo, Egypt

latitude: 30-08N, longitude: 031-24E, elevation: 64 m

Current weather observation

The report was made 22 minutes ago, at 04:00 UTC
Calm wind
Temperature 21°C
Humidity 78%
Pressure 1015 hPa
Visibility: 3000 m
haze

METAR: HECA 170400Z 00000KT 3000 HZ NSC 21/17 Q1015 NOSIG

Time: 06:22 (04:22 UTC)

Forecast

The report was made 5 hours and 22 minutes ago, at 23:00 UTC
Forecast valid from 17 at 00 UTC to 18 at 06 UTC
Wind 10 kt from the North/Northwest
Visibility 10 km or more
Scattered clouds at a height of 2500 ft
Temporary
from 17 at 00 UTC to 17 at 08 UTC
Wind 3 kt from variable directions
Visibility: 4000 m
mist
Temporary
from 17 at 00 UTC to 17 at 06 UTC
Visibility: 2000 m
Temporary
from 18 at 00 UTC to 18 at 06 UTC
Wind 3 kt from variable directions
Visibility: 4000 m
mist

TAF: HECA 162300Z 1700/1806 34010KT 9999 SCT025 TEMPO 1700/1708 VRB03KT 4000 BR NSC TEMPO 1700/1706 2000 TEMPO 1800/1806 VRB03KT 4000 BR NSC

Weather observations and forecasts of more than 4000 airports (METAR and TAF reports).

The available stations are represented by yellow and red dots on the map.

Hover mouse over dot to see the name of the station.

Then click to see weather observations and forecasts.

To change the map : click on the green buttons with a black cross to zoom in, on the green button with a dash to zoom out, or on the green arrows for adjacent maps.


METAR-TAF: